sensor_id;sensor_type;location;lat;lon;timestamp;P1;durP1;ratioP1;P2;durP2;ratioP2
41755;SDS011;27435;48.480;9.258;2022-07-06T00:01:09;3.28;;;1.10;;
41755;SDS011;27435;48.480;9.258;2022-07-06T00:03:35;5.38;;;1.52;;
41755;SDS011;27435;48.480;9.258;2022-07-06T00:06:01;4.97;;;1.50;;
41755;SDS011;27435;48.480;9.258;2022-07-06T00:08:26;2.58;;;1.30;;
41755;SDS011;27435;48.480;9.258;2022-07-06T00:10:52;2.85;;;1.33;;
41755;SDS011;27435;48.480;9.258;2022-07-06T00:13:17;6.30;;;1.70;;
41755;SDS011;27435;48.480;9.258;2022-07-06T00:15:43;3.60;;;1.35;;
41755;SDS011;27435;48.480;9.258;2022-07-06T00:18:09;3.03;;;1.40;;
41755;SDS011;27435;48.480;9.258;2022-07-06T00:20:34;2.78;;;1.30;;
41755;SDS011;27435;48.480;9.258;2022-07-06T00:23:00;5.85;;;1.45;;
41755;SDS011;27435;48.480;9.258;2022-07-06T00:25:25;3.67;;;1.48;;
41755;SDS011;27435;48.480;9.258;2022-07-06T00:27:51;5.88;;;1.65;;
41755;SDS011;27435;48.480;9.258;2022-07-06T00:30:17;2.50;;;1.58;;
41755;SDS011;27435;48.480;9.258;2022-07-06T00:32:42;3.17;;;1.60;;
41755;SDS011;27435;48.480;9.258;2022-07-06T00:35:08;6.15;;;1.33;;
41755;SDS011;27435;48.480;9.258;2022-07-06T00:37:33;7.43;;;1.70;;
41755;SDS011;27435;48.480;9.258;2022-07-06T00:39:59;2.30;;;1.43;;
41755;SDS011;27435;48.480;9.258;2022-07-06T00:42:25;2.90;;;1.42;;
41755;SDS011;27435;48.480;9.258;2022-07-06T00:44:50;3.42;;;1.60;;
41755;SDS011;27435;48.480;9.258;2022-07-06T00:47:16;3.10;;;1.70;;
41755;SDS011;27435;48.480;9.258;2022-07-06T00:49:41;3.20;;;1.40;;
41755;SDS011;27435;48.480;9.258;2022-07-06T00:52:25;5.33;;;1.70;;
41755;SDS011;27435;48.480;9.258;2022-07-06T00:54:51;2.93;;;1.37;;
41755;SDS011;27435;48.480;9.258;2022-07-06T00:57:17;5.00;;;1.70;;
41755;SDS011;27435;48.480;9.258;2022-07-06T00:59:43;3.83;;;1.60;;
41755;SDS011;27435;48.480;9.258;2022-07-06T01:02:09;3.80;;;1.77;;
41755;SDS011;27435;48.480;9.258;2022-07-06T01:04:34;4.03;;;1.70;;
41755;SDS011;27435;48.480;9.258;2022-07-06T01:07:00;3.17;;;1.50;;
41755;SDS011;27435;48.480;9.258;2022-07-06T01:09:27;3.27;;;1.57;;
41755;SDS011;27435;48.480;9.258;2022-07-06T01:11:52;4.00;;;2.17;;
41755;SDS011;27435;48.480;9.258;2022-07-06T01:14:19;4.80;;;1.60;;
41755;SDS011;27435;48.480;9.258;2022-07-06T01:16:45;2.20;;;1.50;;
41755;SDS011;27435;48.480;9.258;2022-07-06T01:19:11;4.43;;;1.53;;
41755;SDS011;27435;48.480;9.258;2022-07-06T01:21:39;3.63;;;1.70;;
41755;SDS011;27435;48.480;9.258;2022-07-06T01:24:05;2.90;;;2.00;;
41755;SDS011;27435;48.480;9.258;2022-07-06T01:26:31;5.70;;;2.47;;
41755;SDS011;27435;48.480;9.258;2022-07-06T01:28:56;3.97;;;2.03;;
41755;SDS011;27435;48.480;9.258;2022-07-06T01:31:25;3.57;;;1.87;;
41755;SDS011;27435;48.480;9.258;2022-07-06T01:33:52;3.00;;;1.70;;
41755;SDS011;27435;48.480;9.258;2022-07-06T01:36:22;3.50;;;2.10;;
41755;SDS011;27435;48.480;9.258;2022-07-06T01:38:49;2.70;;;1.83;;
41755;SDS011;27435;48.480;9.258;2022-07-06T01:41:16;3.87;;;1.87;;
41755;SDS011;27435;48.480;9.258;2022-07-06T01:43:43;3.13;;;2.10;;
41755;SDS011;27435;48.480;9.258;2022-07-06T01:46:09;2.67;;;1.70;;
41755;SDS011;27435;48.480;9.258;2022-07-06T01:48:36;5.67;;;2.00;;
41755;SDS011;27435;48.480;9.258;2022-07-06T01:51:02;6.33;;;2.30;;
41755;SDS011;27435;48.480;9.258;2022-07-06T01:53:28;12.07;;;2.30;;
41755;SDS011;27435;48.480;9.258;2022-07-06T01:55:53;5.43;;;2.57;;
41755;SDS011;27435;48.480;9.258;2022-07-06T01:58:19;5.30;;;2.13;;
41755;SDS011;27435;48.480;9.258;2022-07-06T02:00:44;4.10;;;2.17;;
41755;SDS011;27435;48.480;9.258;2022-07-06T02:03:10;9.50;;;2.50;;
41755;SDS011;27435;48.480;9.258;2022-07-06T02:05:36;4.57;;;2.47;;
41755;SDS011;27435;48.480;9.258;2022-07-06T02:08:01;3.70;;;2.10;;
41755;SDS011;27435;48.480;9.258;2022-07-06T02:10:27;9.53;;;2.20;;
41755;SDS011;27435;48.480;9.258;2022-07-06T02:12:53;3.83;;;2.13;;
41755;SDS011;27435;48.480;9.258;2022-07-06T02:15:18;6.60;;;2.27;;
41755;SDS011;27435;48.480;9.258;2022-07-06T02:17:44;6.43;;;2.40;;
41755;SDS011;27435;48.480;9.258;2022-07-06T02:20:09;2.77;;;1.87;;
41755;SDS011;27435;48.480;9.258;2022-07-06T02:22:35;5.87;;;2.50;;
41755;SDS011;27435;48.480;9.258;2022-07-06T02:25:01;3.80;;;2.57;;
41755;SDS011;27435;48.480;9.258;2022-07-06T02:27:27;7.13;;;3.37;;
41755;SDS011;27435;48.480;9.258;2022-07-06T02:29:52;6.17;;;3.20;;
41755;SDS011;27435;48.480;9.258;2022-07-06T02:32:18;3.13;;;2.10;;
41755;SDS011;27435;48.480;9.258;2022-07-06T02:34:43;4.47;;;2.30;;
41755;SDS011;27435;48.480;9.258;2022-07-06T02:37:09;7.67;;;2.30;;
41755;SDS011;27435;48.480;9.258;2022-07-06T02:39:35;4.77;;;2.57;;
41755;SDS011;27435;48.480;9.258;2022-07-06T02:42:01;7.63;;;2.70;;
41755;SDS011;27435;48.480;9.258;2022-07-06T02:44:26;3.90;;;2.50;;
41755;SDS011;27435;48.480;9.258;2022-07-06T02:46:52;5.27;;;2.67;;
41755;SDS011;27435;48.480;9.258;2022-07-06T02:49:18;8.70;;;2.40;;
41755;SDS011;27435;48.480;9.258;2022-07-06T02:51:43;4.20;;;2.73;;
41755;SDS011;27435;48.480;9.258;2022-07-06T02:54:09;4.83;;;2.50;;
41755;SDS011;27435;48.480;9.258;2022-07-06T02:56:34;4.90;;;2.60;;
41755;SDS011;27435;48.480;9.258;2022-07-06T02:59:00;4.23;;;2.50;;
41755;SDS011;27435;48.480;9.258;2022-07-06T03:01:26;4.03;;;2.90;;
41755;SDS011;27435;48.480;9.258;2022-07-06T03:03:51;4.00;;;2.80;;
41755;SDS011;27435;48.480;9.258;2022-07-06T03:06:17;6.20;;;2.70;;
41755;SDS011;27435;48.480;9.258;2022-07-06T03:08:42;4.63;;;2.90;;
41755;SDS011;27435;48.480;9.258;2022-07-06T03:11:08;5.30;;;3.13;;
41755;SDS011;27435;48.480;9.258;2022-07-06T03:13:34;6.37;;;3.60;;
41755;SDS011;27435;48.480;9.258;2022-07-06T03:16:00;8.60;;;3.47;;
41755;SDS011;27435;48.480;9.258;2022-07-06T03:18:26;6.33;;;3.30;;
41755;SDS011;27435;48.480;9.258;2022-07-06T03:20:52;4.23;;;2.97;;
41755;SDS011;27435;48.480;9.258;2022-07-06T03:23:18;16.10;;;4.67;;
41755;SDS011;27435;48.480;9.258;2022-07-06T03:25:44;10.50;;;2.93;;
41755;SDS011;27435;48.480;9.258;2022-07-06T03:28:09;4.17;;;2.50;;
41755;SDS011;27435;48.480;9.258;2022-07-06T03:30:35;4.40;;;2.73;;
41755;SDS011;27435;48.480;9.258;2022-07-06T03:33:01;4.17;;;2.50;;
41755;SDS011;27435;48.480;9.258;2022-07-06T03:35:26;8.83;;;2.93;;
41755;SDS011;27435;48.480;9.258;2022-07-06T03:37:52;6.00;;;2.87;;
41755;SDS011;27435;48.480;9.258;2022-07-06T03:40:17;6.03;;;3.10;;
41755;SDS011;27435;48.480;9.258;2022-07-06T03:42:43;5.57;;;3.00;;
41755;SDS011;27435;48.480;9.258;2022-07-06T03:45:09;4.97;;;2.90;;
41755;SDS011;27435;48.480;9.258;2022-07-06T03:47:35;6.20;;;2.90;;
41755;SDS011;27435;48.480;9.258;2022-07-06T03:50:00;4.87;;;3.27;;
41755;SDS011;27435;48.480;9.258;2022-07-06T03:52:26;8.60;;;3.17;;
41755;SDS011;27435;48.480;9.258;2022-07-06T03:54:51;3.23;;;2.53;;
41755;SDS011;27435;48.480;9.258;2022-07-06T03:57:17;5.63;;;3.30;;
41755;SDS011;27435;48.480;9.258;2022-07-06T03:59:43;5.47;;;3.30;;
41755;SDS011;27435;48.480;9.258;2022-07-06T04:02:08;9.43;;;3.43;;
41755;SDS011;27435;48.480;9.258;2022-07-06T04:04:34;8.17;;;3.13;;
41755;SDS011;27435;48.480;9.258;2022-07-06T04:07:00;5.20;;;3.43;;
41755;SDS011;27435;48.480;9.258;2022-07-06T04:09:25;5.87;;;3.17;;
41755;SDS011;27435;48.480;9.258;2022-07-06T04:11:51;4.87;;;2.93;;
41755;SDS011;27435;48.480;9.258;2022-07-06T04:14:17;4.30;;;2.87;;
41755;SDS011;27435;48.480;9.258;2022-07-06T04:16:43;4.67;;;2.80;;
41755;SDS011;27435;48.480;9.258;2022-07-06T04:19:08;4.47;;;3.03;;
41755;SDS011;27435;48.480;9.258;2022-07-06T04:21:34;7.03;;;3.17;;
41755;SDS011;27435;48.480;9.258;2022-07-06T04:24:00;4.23;;;3.00;;
41755;SDS011;27435;48.480;9.258;2022-07-06T04:26:25;4.60;;;2.77;;
41755;SDS011;27435;48.480;9.258;2022-07-06T04:28:51;4.73;;;2.93;;
41755;SDS011;27435;48.480;9.258;2022-07-06T04:31:17;6.90;;;2.90;;
41755;SDS011;27435;48.480;9.258;2022-07-06T04:33:42;5.03;;;2.97;;
41755;SDS011;27435;48.480;9.258;2022-07-06T04:36:08;4.27;;;3.13;;
41755;SDS011;27435;48.480;9.258;2022-07-06T04:38:35;4.30;;;3.20;;
41755;SDS011;27435;48.480;9.258;2022-07-06T04:41:00;3.90;;;3.10;;
41755;SDS011;27435;48.480;9.258;2022-07-06T04:43:26;4.93;;;3.20;;
41755;SDS011;27435;48.480;9.258;2022-07-06T04:45:52;4.07;;;2.93;;
41755;SDS011;27435;48.480;9.258;2022-07-06T04:48:17;9.10;;;3.30;;
41755;SDS011;27435;48.480;9.258;2022-07-06T04:50:43;6.83;;;3.33;;
41755;SDS011;27435;48.480;9.258;2022-07-06T04:53:09;7.13;;;3.83;;
41755;SDS011;27435;48.480;9.258;2022-07-06T04:55:34;6.13;;;3.50;;
41755;SDS011;27435;48.480;9.258;2022-07-06T04:58:00;6.32;;;3.67;;
41755;SDS011;27435;48.480;9.258;2022-07-06T05:00:26;7.13;;;3.37;;
41755;SDS011;27435;48.480;9.258;2022-07-06T05:02:51;5.03;;;3.00;;
41755;SDS011;27435;48.480;9.258;2022-07-06T05:05:17;5.00;;;3.13;;
41755;SDS011;27435;48.480;9.258;2022-07-06T05:07:43;4.40;;;3.28;;
41755;SDS011;27435;48.480;9.258;2022-07-06T05:10:09;5.28;;;3.10;;
41755;SDS011;27435;48.480;9.258;2022-07-06T05:12:36;5.00;;;2.92;;
41755;SDS011;27435;48.480;9.258;2022-07-06T05:15:01;14.38;;;4.00;;
41755;SDS011;27435;48.480;9.258;2022-07-06T05:17:27;4.32;;;2.92;;
41755;SDS011;27435;48.480;9.258;2022-07-06T05:19:53;6.97;;;3.25;;
41755;SDS011;27435;48.480;9.258;2022-07-06T05:22:19;4.25;;;2.83;;
41755;SDS011;27435;48.480;9.258;2022-07-06T05:24:44;6.57;;;2.90;;
41755;SDS011;27435;48.480;9.258;2022-07-06T05:27:10;6.07;;;2.65;;
41755;SDS011;27435;48.480;9.258;2022-07-06T05:29:36;4.53;;;2.55;;
41755;SDS011;27435;48.480;9.258;2022-07-06T05:32:01;6.13;;;2.75;;
41755;SDS011;27435;48.480;9.258;2022-07-06T05:34:27;8.60;;;2.88;;
41755;SDS011;27435;48.480;9.258;2022-07-06T05:36:53;7.55;;;2.40;;
41755;SDS011;27435;48.480;9.258;2022-07-06T05:39:19;5.00;;;2.28;;
41755;SDS011;27435;48.480;9.258;2022-07-06T05:41:46;3.17;;;1.88;;
41755;SDS011;27435;48.480;9.258;2022-07-06T05:44:12;7.30;;;2.25;;
41755;SDS011;27435;48.480;9.258;2022-07-06T05:46:38;4.20;;;2.00;;
41755;SDS011;27435;48.480;9.258;2022-07-06T05:49:03;5.05;;;2.25;;
41755;SDS011;27435;48.480;9.258;2022-07-06T05:51:47;3.92;;;2.00;;
41755;SDS011;27435;48.480;9.258;2022-07-06T05:54:14;4.30;;;2.13;;
41755;SDS011;27435;48.480;9.258;2022-07-06T05:56:40;7.13;;;2.15;;
41755;SDS011;27435;48.480;9.258;2022-07-06T05:59:06;3.80;;;2.00;;
41755;SDS011;27435;48.480;9.258;2022-07-06T06:01:31;6.03;;;2.05;;
41755;SDS011;27435;48.480;9.258;2022-07-06T06:03:57;9.02;;;2.17;;
41755;SDS011;27435;48.480;9.258;2022-07-06T06:06:24;5.93;;;1.98;;
41755;SDS011;27435;48.480;9.258;2022-07-06T06:08:50;5.45;;;2.40;;
41755;SDS011;27435;48.480;9.258;2022-07-06T06:11:16;6.45;;;2.25;;
41755;SDS011;27435;48.480;9.258;2022-07-06T06:13:42;4.78;;;2.22;;
41755;SDS011;27435;48.480;9.258;2022-07-06T06:16:07;6.63;;;2.47;;
41755;SDS011;27435;48.480;9.258;2022-07-06T06:18:34;6.10;;;2.00;;
41755;SDS011;27435;48.480;9.258;2022-07-06T06:21:00;4.47;;;1.92;;
41755;SDS011;27435;48.480;9.258;2022-07-06T06:23:45;4.10;;;2.45;;
41755;SDS011;27435;48.480;9.258;2022-07-06T06:26:11;5.40;;;2.03;;
41755;SDS011;27435;48.480;9.258;2022-07-06T06:28:36;4.63;;;2.17;;
41755;SDS011;27435;48.480;9.258;2022-07-06T06:31:02;3.53;;;2.30;;
41755;SDS011;27435;48.480;9.258;2022-07-06T06:33:28;4.85;;;1.77;;
41755;SDS011;27435;48.480;9.258;2022-07-06T06:35:53;9.75;;;1.80;;
41755;SDS011;27435;48.480;9.258;2022-07-06T06:38:20;3.03;;;1.80;;
41755;SDS011;27435;48.480;9.258;2022-07-06T06:40:47;6.05;;;1.80;;
41755;SDS011;27435;48.480;9.258;2022-07-06T06:43:14;6.82;;;2.30;;
41755;SDS011;27435;48.480;9.258;2022-07-06T06:45:44;3.83;;;1.85;;
41755;SDS011;27435;48.480;9.258;2022-07-06T06:48:11;4.60;;;2.05;;
41755;SDS011;27435;48.480;9.258;2022-07-06T06:50:37;5.10;;;1.83;;
41755;SDS011;27435;48.480;9.258;2022-07-06T06:53:02;5.65;;;2.28;;
41755;SDS011;27435;48.480;9.258;2022-07-06T06:55:28;5.35;;;2.08;;
41755;SDS011;27435;48.480;9.258;2022-07-06T06:57:54;4.13;;;2.20;;
41755;SDS011;27435;48.480;9.258;2022-07-06T07:00:19;5.43;;;2.10;;
41755;SDS011;27435;48.480;9.258;2022-07-06T07:02:45;6.65;;;2.45;;
41755;SDS011;27435;48.480;9.258;2022-07-06T07:05:12;5.28;;;2.22;;
41755;SDS011;27435;48.480;9.258;2022-07-06T07:07:37;5.68;;;2.10;;
41755;SDS011;27435;48.480;9.258;2022-07-06T07:10:04;5.70;;;2.30;;
41755;SDS011;27435;48.480;9.258;2022-07-06T07:12:31;5.15;;;2.35;;
41755;SDS011;27435;48.480;9.258;2022-07-06T07:14:58;5.05;;;1.92;;
41755;SDS011;27435;48.480;9.258;2022-07-06T07:17:23;4.68;;;2.33;;
41755;SDS011;27435;48.480;9.258;2022-07-06T07:19:49;3.25;;;2.15;;
41755;SDS011;27435;48.480;9.258;2022-07-06T07:22:15;4.00;;;2.20;;
41755;SDS011;27435;48.480;9.258;2022-07-06T07:24:41;5.22;;;2.00;;
41755;SDS011;27435;48.480;9.258;2022-07-06T07:27:06;7.75;;;2.15;;
41755;SDS011;27435;48.480;9.258;2022-07-06T07:29:32;6.93;;;2.35;;
41755;SDS011;27435;48.480;9.258;2022-07-06T07:31:59;5.82;;;2.30;;
41755;SDS011;27435;48.480;9.258;2022-07-06T07:34:25;4.03;;;2.10;;
41755;SDS011;27435;48.480;9.258;2022-07-06T07:36:50;5.38;;;2.60;;
41755;SDS011;27435;48.480;9.258;2022-07-06T07:39:16;7.47;;;3.00;;
41755;SDS011;27435;48.480;9.258;2022-07-06T07:41:42;6.40;;;2.53;;
41755;SDS011;27435;48.480;9.258;2022-07-06T07:44:07;6.60;;;2.50;;
41755;SDS011;27435;48.480;9.258;2022-07-06T07:46:33;5.28;;;2.83;;
41755;SDS011;27435;48.480;9.258;2022-07-06T07:48:58;8.65;;;2.90;;
41755;SDS011;27435;48.480;9.258;2022-07-06T07:51:24;7.05;;;2.65;;
41755;SDS011;27435;48.480;9.258;2022-07-06T07:53:50;9.27;;;3.33;;
41755;SDS011;27435;48.480;9.258;2022-07-06T07:56:15;4.57;;;2.53;;
41755;SDS011;27435;48.480;9.258;2022-07-06T07:58:41;4.55;;;2.47;;
41755;SDS011;27435;48.480;9.258;2022-07-06T08:01:07;8.68;;;2.97;;
41755;SDS011;27435;48.480;9.258;2022-07-06T08:03:32;10.95;;;2.70;;
41755;SDS011;27435;48.480;9.258;2022-07-06T08:05:58;6.40;;;2.58;;
41755;SDS011;27435;48.480;9.258;2022-07-06T08:08:24;6.97;;;2.50;;
41755;SDS011;27435;48.480;9.258;2022-07-06T08:10:49;4.85;;;2.75;;
41755;SDS011;27435;48.480;9.258;2022-07-06T08:13:15;6.10;;;2.20;;
41755;SDS011;27435;48.480;9.258;2022-07-06T08:15:41;3.65;;;2.50;;
41755;SDS011;27435;48.480;9.258;2022-07-06T08:18:07;8.02;;;2.55;;
41755;SDS011;27435;48.480;9.258;2022-07-06T08:20:34;12.45;;;3.10;;
41755;SDS011;27435;48.480;9.258;2022-07-06T08:23:00;6.75;;;2.80;;
41755;SDS011;27435;48.480;9.258;2022-07-06T08:25:26;3.88;;;2.03;;
41755;SDS011;27435;48.480;9.258;2022-07-06T08:27:51;8.25;;;3.00;;
41755;SDS011;27435;48.480;9.258;2022-07-06T08:30:17;4.65;;;2.65;;
41755;SDS011;27435;48.480;9.258;2022-07-06T08:32:43;8.68;;;2.95;;
41755;SDS011;27435;48.480;9.258;2022-07-06T08:35:09;4.97;;;2.80;;
41755;SDS011;27435;48.480;9.258;2022-07-06T08:37:35;6.38;;;2.63;;
41755;SDS011;27435;48.480;9.258;2022-07-06T08:40:02;5.22;;;2.80;;
41755;SDS011;27435;48.480;9.258;2022-07-06T08:42:32;3.60;;;2.25;;
41755;SDS011;27435;48.480;9.258;2022-07-06T08:44:59;6.75;;;2.80;;
41755;SDS011;27435;48.480;9.258;2022-07-06T08:47:26;4.00;;;2.50;;
41755;SDS011;27435;48.480;9.258;2022-07-06T08:49:52;5.93;;;2.55;;
41755;SDS011;27435;48.480;9.258;2022-07-06T08:52:19;3.63;;;2.15;;
41755;SDS011;27435;48.480;9.258;2022-07-06T08:54:46;4.53;;;2.33;;
41755;SDS011;27435;48.480;9.258;2022-07-06T08:57:12;5.43;;;2.80;;
41755;SDS011;27435;48.480;9.258;2022-07-06T08:59:38;5.10;;;2.55;;
41755;SDS011;27435;48.480;9.258;2022-07-06T09:02:04;7.18;;;2.95;;
41755;SDS011;27435;48.480;9.258;2022-07-06T09:04:32;5.15;;;2.65;;
41755;SDS011;27435;48.480;9.258;2022-07-06T09:06:58;4.43;;;2.50;;
41755;SDS011;27435;48.480;9.258;2022-07-06T09:09:24;4.35;;;2.25;;
41755;SDS011;27435;48.480;9.258;2022-07-06T09:11:51;7.45;;;2.45;;
41755;SDS011;27435;48.480;9.258;2022-07-06T09:14:18;6.20;;;2.35;;
41755;SDS011;27435;48.480;9.258;2022-07-06T09:16:46;4.97;;;2.55;;
41755;SDS011;27435;48.480;9.258;2022-07-06T09:19:17;6.72;;;2.60;;
41755;SDS011;27435;48.480;9.258;2022-07-06T09:21:43;5.55;;;2.60;;
41755;SDS011;27435;48.480;9.258;2022-07-06T09:24:10;4.35;;;2.13;;
41755;SDS011;27435;48.480;9.258;2022-07-06T09:26:38;7.15;;;2.60;;
41755;SDS011;27435;48.480;9.258;2022-07-06T09:29:04;10.60;;;2.80;;
41755;SDS011;27435;48.480;9.258;2022-07-06T09:31:31;6.65;;;2.25;;
41755;SDS011;27435;48.480;9.258;2022-07-06T09:34:04;6.72;;;2.47;;
41755;SDS011;27435;48.480;9.258;2022-07-06T09:36:45;7.65;;;2.22;;
41755;SDS011;27435;48.480;9.258;2022-07-06T09:41:55;6.72;;;2.67;;
41755;SDS011;27435;48.480;9.258;2022-07-06T09:46:47;7.95;;;2.10;;
41755;SDS011;27435;48.480;9.258;2022-07-06T09:49:16;5.78;;;2.15;;
41755;SDS011;27435;48.480;9.258;2022-07-06T09:51:46;3.90;;;2.10;;
41755;SDS011;27435;48.480;9.258;2022-07-06T09:54:14;6.10;;;1.67;;
41755;SDS011;27435;48.480;9.258;2022-07-06T09:56:41;4.60;;;2.50;;
41755;SDS011;27435;48.480;9.258;2022-07-06T09:59:08;6.82;;;2.10;;
41755;SDS011;27435;48.480;9.258;2022-07-06T10:01:35;2.88;;;1.83;;
41755;SDS011;27435;48.480;9.258;2022-07-06T10:04:02;9.68;;;1.80;;
41755;SDS011;27435;48.480;9.258;2022-07-06T10:06:28;6.47;;;1.73;;
41755;SDS011;27435;48.480;9.258;2022-07-06T10:08:54;5.35;;;2.00;;
41755;SDS011;27435;48.480;9.258;2022-07-06T10:11:22;6.65;;;1.60;;
41755;SDS011;27435;48.480;9.258;2022-07-06T10:13:53;3.50;;;1.90;;
41755;SDS011;27435;48.480;9.258;2022-07-06T10:16:23;8.95;;;2.10;;
41755;SDS011;27435;48.480;9.258;2022-07-06T10:18:50;3.35;;;1.83;;
41755;SDS011;27435;48.480;9.258;2022-07-06T10:21:23;8.02;;;2.40;;
41755;SDS011;27435;48.480;9.258;2022-07-06T10:23:49;5.40;;;2.25;;
41755;SDS011;27435;48.480;9.258;2022-07-06T10:26:16;5.85;;;1.65;;
41755;SDS011;27435;48.480;9.258;2022-07-06T10:28:43;6.03;;;1.90;;
41755;SDS011;27435;48.480;9.258;2022-07-06T10:31:12;3.08;;;1.95;;
41755;SDS011;27435;48.480;9.258;2022-07-06T10:33:41;6.75;;;1.77;;
41755;SDS011;27435;48.480;9.258;2022-07-06T10:36:08;7.05;;;2.00;;
41755;SDS011;27435;48.480;9.258;2022-07-06T10:38:35;4.97;;;2.10;;
41755;SDS011;27435;48.480;9.258;2022-07-06T10:41:04;6.07;;;1.73;;
41755;SDS011;27435;48.480;9.258;2022-07-06T10:46:05;3.95;;;1.88;;
41755;SDS011;27435;48.480;9.258;2022-07-06T10:48:48;3.58;;;1.65;;
41755;SDS011;27435;48.480;9.258;2022-07-06T10:51:24;6.47;;;1.60;;
41755;SDS011;27435;48.480;9.258;2022-07-06T10:54:11;2.30;;;1.58;;
41755;SDS011;27435;48.480;9.258;2022-07-06T10:59:11;6.97;;;1.52;;
41755;SDS011;27435;48.480;9.258;2022-07-06T11:02:29;4.53;;;1.90;;
41755;SDS011;27435;48.480;9.258;2022-07-06T11:04:36;4.78;;;1.42;;
41755;SDS011;27435;48.480;9.258;2022-07-06T11:07:16;4.45;;;1.77;;
41755;SDS011;27435;48.480;9.258;2022-07-06T11:09:56;6.57;;;1.75;;
41755;SDS011;27435;48.480;9.258;2022-07-06T11:12:23;3.80;;;1.67;;
41755;SDS011;27435;48.480;9.258;2022-07-06T11:14:51;6.38;;;2.00;;
41755;SDS011;27435;48.480;9.258;2022-07-06T11:17:18;3.35;;;1.90;;
41755;SDS011;27435;48.480;9.258;2022-07-06T11:19:57;5.15;;;2.00;;
41755;SDS011;27435;48.480;9.258;2022-07-06T11:22:33;6.95;;;1.88;;
41755;SDS011;27435;48.480;9.258;2022-07-06T11:25:06;3.88;;;1.45;;
41755;SDS011;27435;48.480;9.258;2022-07-06T11:27:36;4.13;;;1.40;;
41755;SDS011;27435;48.480;9.258;2022-07-06T11:30:02;5.05;;;1.73;;
41755;SDS011;27435;48.480;9.258;2022-07-06T11:32:31;8.13;;;1.95;;
41755;SDS011;27435;48.480;9.258;2022-07-06T11:34:57;4.65;;;1.88;;
41755;SDS011;27435;48.480;9.258;2022-07-06T11:37:23;3.65;;;1.50;;
41755;SDS011;27435;48.480;9.258;2022-07-06T11:39:50;5.70;;;1.50;;
41755;SDS011;27435;48.480;9.258;2022-07-06T11:42:16;4.55;;;1.55;;
41755;SDS011;27435;48.480;9.258;2022-07-06T11:44:43;6.07;;;1.75;;
41755;SDS011;27435;48.480;9.258;2022-07-06T11:47:10;6.07;;;1.83;;
41755;SDS011;27435;48.480;9.258;2022-07-06T11:49:37;3.10;;;1.48;;
41755;SDS011;27435;48.480;9.258;2022-07-06T11:52:06;5.55;;;1.83;;
41755;SDS011;27435;48.480;9.258;2022-07-06T11:54:33;4.65;;;1.75;;
41755;SDS011;27435;48.480;9.258;2022-07-06T11:56:58;6.85;;;2.00;;
41755;SDS011;27435;48.480;9.258;2022-07-06T12:00:03;7.63;;;1.80;;
41755;SDS011;27435;48.480;9.258;2022-07-06T12:02:30;7.15;;;1.77;;
41755;SDS011;27435;48.480;9.258;2022-07-06T12:04:56;4.80;;;1.85;;
41755;SDS011;27435;48.480;9.258;2022-07-06T12:07:22;3.00;;;1.67;;
41755;SDS011;27435;48.480;9.258;2022-07-06T12:09:48;4.20;;;1.70;;
41755;SDS011;27435;48.480;9.258;2022-07-06T12:12:13;2.95;;;1.67;;
41755;SDS011;27435;48.480;9.258;2022-07-06T12:14:41;5.15;;;1.80;;
41755;SDS011;27435;48.480;9.258;2022-07-06T12:17:08;4.50;;;1.70;;
41755;SDS011;27435;48.480;9.258;2022-07-06T12:19:38;5.22;;;1.80;;
41755;SDS011;27435;48.480;9.258;2022-07-06T12:22:06;10.18;;;2.00;;
41755;SDS011;27435;48.480;9.258;2022-07-06T12:24:33;4.82;;;1.80;;
41755;SDS011;27435;48.480;9.258;2022-07-06T12:29:41;3.90;;;1.63;;
41755;SDS011;27435;48.480;9.258;2022-07-06T12:32:13;4.25;;;1.70;;
41755;SDS011;27435;48.480;9.258;2022-07-06T12:35:04;5.47;;;2.00;;
41755;SDS011;27435;48.480;9.258;2022-07-06T12:37:31;5.07;;;1.85;;
41755;SDS011;27435;48.480;9.258;2022-07-06T12:39:57;4.72;;;1.75;;
41755;SDS011;27435;48.480;9.258;2022-07-06T12:42:23;5.25;;;1.92;;
41755;SDS011;27435;48.480;9.258;2022-07-06T12:44:50;5.57;;;1.75;;
41755;SDS011;27435;48.480;9.258;2022-07-06T12:47:20;6.57;;;2.03;;
41755;SDS011;27435;48.480;9.258;2022-07-06T12:49:49;9.57;;;1.85;;
41755;SDS011;27435;48.480;9.258;2022-07-06T12:52:32;5.95;;;2.05;;
41755;SDS011;27435;48.480;9.258;2022-07-06T12:54:59;3.13;;;1.70;;
41755;SDS011;27435;48.480;9.258;2022-07-06T12:57:26;8.07;;;1.63;;
41755;SDS011;27435;48.480;9.258;2022-07-06T13:02:22;3.80;;;1.65;;
41755;SDS011;27435;48.480;9.258;2022-07-06T13:07:26;3.63;;;1.70;;
41755;SDS011;27435;48.480;9.258;2022-07-06T13:09:53;3.60;;;1.52;;
41755;SDS011;27435;48.480;9.258;2022-07-06T13:12:20;7.03;;;1.90;;
41755;SDS011;27435;48.480;9.258;2022-07-06T13:14:46;6.18;;;1.73;;
41755;SDS011;27435;48.480;9.258;2022-07-06T13:17:12;8.95;;;2.50;;
41755;SDS011;27435;48.480;9.258;2022-07-06T13:19:38;5.30;;;1.95;;
41755;SDS011;27435;48.480;9.258;2022-07-06T13:22:03;5.72;;;1.98;;
41755;SDS011;27435;48.480;9.258;2022-07-06T13:24:29;6.97;;;1.60;;
41755;SDS011;27435;48.480;9.258;2022-07-06T13:26:55;5.07;;;1.58;;
41755;SDS011;27435;48.480;9.258;2022-07-06T13:29:22;3.35;;;1.80;;
41755;SDS011;27435;48.480;9.258;2022-07-06T13:31:48;7.38;;;2.25;;
41755;SDS011;27435;48.480;9.258;2022-07-06T13:34:14;7.25;;;2.35;;
41755;SDS011;27435;48.480;9.258;2022-07-06T13:36:40;9.60;;;2.25;;
41755;SDS011;27435;48.480;9.258;2022-07-06T13:39:06;7.80;;;2.05;;
41755;SDS011;27435;48.480;9.258;2022-07-06T13:41:32;4.28;;;2.20;;
41755;SDS011;27435;48.480;9.258;2022-07-06T13:43:59;4.55;;;2.15;;
41755;SDS011;27435;48.480;9.258;2022-07-06T13:46:28;5.40;;;2.00;;
41755;SDS011;27435;48.480;9.258;2022-07-06T13:48:54;4.90;;;2.25;;
41755;SDS011;27435;48.480;9.258;2022-07-06T13:51:22;5.20;;;2.20;;
41755;SDS011;27435;48.480;9.258;2022-07-06T13:53:51;5.75;;;2.35;;
41755;SDS011;27435;48.480;9.258;2022-07-06T13:56:17;5.70;;;2.38;;
41755;SDS011;27435;48.480;9.258;2022-07-06T13:58:49;9.00;;;2.20;;
41755;SDS011;27435;48.480;9.258;2022-07-06T14:01:15;7.20;;;2.20;;
41755;SDS011;27435;48.480;9.258;2022-07-06T14:03:41;3.17;;;1.65;;
41755;SDS011;27435;48.480;9.258;2022-07-06T14:06:07;7.10;;;1.88;;
41755;SDS011;27435;48.480;9.258;2022-07-06T14:08:36;4.35;;;2.25;;
41755;SDS011;27435;48.480;9.258;2022-07-06T14:11:03;3.38;;;2.13;;
41755;SDS011;27435;48.480;9.258;2022-07-06T14:13:30;9.85;;;2.53;;
41755;SDS011;27435;48.480;9.258;2022-07-06T14:15:56;6.68;;;2.20;;
41755;SDS011;27435;48.480;9.258;2022-07-06T14:18:23;5.90;;;1.90;;
41755;SDS011;27435;48.480;9.258;2022-07-06T14:20:52;4.28;;;2.00;;
41755;SDS011;27435;48.480;9.258;2022-07-06T14:23:18;5.93;;;2.08;;
41755;SDS011;27435;48.480;9.258;2022-07-06T14:25:45;4.47;;;2.20;;
41755;SDS011;27435;48.480;9.258;2022-07-06T14:28:11;7.43;;;2.75;;
41755;SDS011;27435;48.480;9.258;2022-07-06T14:30:42;5.60;;;2.13;;
41755;SDS011;27435;48.480;9.258;2022-07-06T14:33:27;7.25;;;2.33;;
41755;SDS011;27435;48.480;9.258;2022-07-06T14:35:52;5.25;;;2.20;;
41755;SDS011;27435;48.480;9.258;2022-07-06T14:38:18;7.43;;;3.08;;
41755;SDS011;27435;48.480;9.258;2022-07-06T14:40:45;4.68;;;1.95;;
41755;SDS011;27435;48.480;9.258;2022-07-06T14:43:16;4.35;;;1.80;;
41755;SDS011;27435;48.480;9.258;2022-07-06T14:45:43;3.78;;;2.10;;
41755;SDS011;27435;48.480;9.258;2022-07-06T14:48:10;4.10;;;1.60;;
41755;SDS011;27435;48.480;9.258;2022-07-06T14:50:35;5.38;;;1.80;;
41755;SDS011;27435;48.480;9.258;2022-07-06T14:53:01;8.90;;;1.95;;
41755;SDS011;27435;48.480;9.258;2022-07-06T14:55:27;4.20;;;2.00;;
41755;SDS011;27435;48.480;9.258;2022-07-06T14:57:53;4.05;;;1.92;;
41755;SDS011;27435;48.480;9.258;2022-07-06T15:00:22;8.68;;;2.30;;
41755;SDS011;27435;48.480;9.258;2022-07-06T15:02:48;5.18;;;1.77;;
41755;SDS011;27435;48.480;9.258;2022-07-06T15:05:13;4.80;;;2.08;;